Time;durP1;ratioP1;P1;durP2;ratioP2;P2;SDS_P1;SDS_P2;PMS_P1;PMS_P2;Temp;Humidity;BMP_temperature;BMP_pressure;BME280_temperature;BME280_humidity;BME280_pressure;Samples;Min_cycle;Max_cycle;Signal;HPM_P1;HPM_P2
2024/01/26 00:01:55;;;;;;;9.57;5.75;;;;;11.80;99556.00;;;;5075750;28;20439;-67
2024/01/26 00:04:22;;;;;;;7.18;5.43;;;;;11.80;99554.00;;;;5074235;28;20083;-69
2024/01/26 00:06:49;;;;;;;8.23;6.20;;;;;11.70;99556.00;;;;5075214;28;20045;-69
2024/01/26 00:09:16;;;;;;;9.60;5.70;;;;;11.70;99552.00;;;;5084511;28;20044;-69
2024/01/26 00:11:43;;;;;;;8.70;5.88;;;;;11.60;99548.00;;;;5086516;28;20041;-66
2024/01/26 00:14:09;;;;;;;8.88;5.65;;;;;11.60;99548.00;;;;5068371;28;20053;-67
2024/01/26 00:16:37;;;;;;;7.00;5.38;;;;;11.60;99542.00;;;;5086830;28;20048;-67
2024/01/26 00:19:07;;;;;;;7.32;5.40;;;;;11.60;99547.00;;;;5087304;28;20109;-66
2024/01/26 00:21:34;;;;;;;9.77;5.10;;;;;11.60;99546.00;;;;5087443;28;20114;-68
2024/01/26 00:24:05;;;;;;;6.88;5.70;;;;;11.60;99536.00;;;;5086767;28;20045;-68
2024/01/26 00:26:34;;;;;;;8.82;5.35;;;;;11.60;99536.00;;;;5087372;28;20052;-68
2024/01/26 00:29:01;;;;;;;6.75;4.78;;;;;11.60;99537.00;;;;5090884;28;20045;-66
2024/01/26 00:31:28;;;;;;;7.88;4.68;;;;;11.60;99538.00;;;;5073846;28;20112;-68
2024/01/26 00:33:54;;;;;;;6.88;4.30;;;;;11.60;99536.00;;;;5088777;28;20041;-67
2024/01/26 00:36:21;;;;;;;6.38;4.47;;;;;11.60;99537.00;;;;5082767;28;20079;-68
2024/01/26 00:38:48;;;;;;;5.18;4.28;;;;;11.50;99534.00;;;;5082993;28;20041;-68
2024/01/26 00:41:14;;;;;;;5.68;4.03;;;;;11.50;99528.00;;;;5083245;28;20128;-67
2024/01/26 00:43:41;;;;;;;7.57;4.80;;;;;11.50;99524.00;;;;5079049;28;20151;-67
2024/01/26 00:46:08;;;;;;;6.90;3.55;;;;;11.50;99525.00;;;;5084085;28;20048;-67
2024/01/26 00:48:34;;;;;;;4.45;3.58;;;;;11.50;99531.00;;;;5079093;28;20040;-68
2024/01/26 00:51:06;;;;;;;3.88;3.45;;;;;11.50;99535.00;;;;5075934;28;20053;-68
2024/01/26 00:53:33;;;;;;;4.75;3.67;;;;;11.50;99538.00;;;;5074835;28;20126;-67
2024/01/26 00:55:59;;;;;;;7.00;3.42;;;;;11.50;99523.00;;;;5075344;28;20135;-68
2024/01/26 00:58:26;;;;;;;8.00;4.20;;;;;11.50;99513.00;;;;5075492;28;20139;-70
2024/01/26 01:00:52;;;;;;;6.70;4.38;;;;;11.40;99507.00;;;;5081249;28;20131;-68
2024/01/26 01:03:19;;;;;;;6.30;4.55;;;;;11.40;99506.00;;;;5083839;28;20053;-66
2024/01/26 01:05:46;;;;;;;6.00;4.40;;;;;11.40;99507.00;;;;5083062;28;20051;-68
2024/01/26 01:08:13;;;;;;;7.88;5.15;;;;;11.30;99501.00;;;;5083899;28;20044;-68
2024/01/26 01:10:39;;;;;;;9.20;5.30;;;;;11.30;99507.00;;;;5081154;28;20087;-67
2024/01/26 01:13:10;;;;;;;8.45;5.40;;;;;11.30;99502.00;;;;5083610;28;20068;-68
2024/01/26 01:15:39;;;;;;;8.43;5.82;;;;;11.30;99502.00;;;;5082715;28;20413;-69
2024/01/26 01:18:06;;;;;;;10.32;6.82;;;;;11.30;99505.00;;;;5080187;28;20040;-66
2024/01/26 01:20:33;;;;;;;8.82;6.10;;;;;11.20;99508.00;;;;5076340;28;20097;-68
2024/01/26 01:23:00;;;;;;;7.07;6.10;;;;;11.30;99517.00;;;;5073353;28;20052;-68
2024/01/26 01:25:26;;;;;;;8.80;6.55;;;;;11.30;99507.00;;;;5072307;28;20090;-69
2024/01/26 01:27:53;;;;;;;7.13;5.97;;;;;11.30;99502.00;;;;5073817;28;20547;-68
2024/01/26 01:30:20;;;;;;;8.75;6.90;;;;;11.30;99508.00;;;;5072592;28;20059;-68
2024/01/26 01:32:47;;;;;;;8.52;6.93;;;;;11.30;99501.00;;;;5072387;28;20051;-68
2024/01/26 01:35:14;;;;;;;7.15;6.45;;;;;11.30;99500.00;;;;5071305;28;20082;-68
2024/01/26 01:37:41;;;;;;;10.13;7.13;;;;;11.30;99501.00;;;;5072107;28;20049;-68
2024/01/26 01:40:08;;;;;;;8.45;6.53;;;;;11.30;99506.00;;;;5073061;28;20105;-68
2024/01/26 01:42:34;;;;;;;7.55;6.00;;;;;11.30;99503.00;;;;5071728;28;20130;-68
2024/01/26 01:45:06;;;;;;;6.63;5.68;;;;;11.20;99499.00;;;;5071179;28;20052;-68
2024/01/26 01:47:33;;;;;;;7.07;5.60;;;;;11.20;99498.00;;;;5073002;28;20040;-68
2024/01/26 01:50:00;;;;;;;6.93;5.13;;;;;11.20;99505.00;;;;5071554;28;20416;-68
2024/01/26 01:52:28;;;;;;;6.10;5.50;;;;;11.20;99505.00;;;;5071446;28;20047;-67
2024/01/26 01:54:58;;;;;;;6.55;5.03;;;;;11.20;99504.00;;;;5070839;28;20052;-68
2024/01/26 01:57:28;;;;;;;6.50;4.97;;;;;11.20;99511.00;;;;5071610;28;20044;-67
2024/01/26 01:59:54;;;;;;;6.85;4.70;;;;;11.20;99513.00;;;;5071305;28;20648;-68
2024/01/26 02:02:24;;;;;;;5.90;4.45;;;;;11.10;99498.00;;;;5072561;28;20055;-68
2024/01/26 02:04:50;;;;;;;5.13;4.20;;;;;11.10;99499.00;;;;5070510;28;20494;-68
2024/01/26 02:07:17;;;;;;;4.07;3.40;;;;;11.10;99497.00;;;;5054781;28;20466;-68
2024/01/26 02:09:44;;;;;;;3.83;3.05;;;;;11.10;99495.00;;;;5071568;28;20079;-68
2024/01/26 02:12:11;;;;;;;5.40;3.40;;;;;11.10;99494.00;;;;5072124;28;20124;-68
2024/01/26 02:14:39;;;;;;;4.20;2.83;;;;;11.10;99486.00;;;;5070532;28;20494;-67
2024/01/26 02:17:06;;;;;;;4.15;2.75;;;;;11.10;99474.00;;;;5054390;28;20052;-66
2024/01/26 02:19:33;;;;;;;2.70;2.50;;;;;11.10;99486.00;;;;5071225;28;20048;-67
2024/01/26 02:22:00;;;;;;;3.92;2.60;;;;;11.10;99480.00;;;;5071317;28;20501;-67
2024/01/26 02:24:26;;;;;;;2.72;2.20;;;;;11.10;99486.00;;;;5071669;28;20123;-67
2024/01/26 02:26:53;;;;;;;2.92;2.13;;;;;11.10;99478.00;;;;5070877;28;20127;-67
2024/01/26 02:29:20;;;;;;;2.53;1.92;;;;;11.10;99480.00;;;;5070891;28;20076;-68
2024/01/26 02:31:46;;;;;;;2.30;2.10;;;;;11.10;99485.00;;;;5054110;28;20049;-67
2024/01/26 02:34:13;;;;;;;3.63;1.98;;;;;11.10;99467.00;;;;5071561;28;20036;-67
2024/01/26 02:36:40;;;;;;;5.03;2.00;;;;;11.00;99477.00;;;;5072038;28;20048;-67
2024/01/26 02:39:07;;;;;;;3.33;2.20;;;;;11.00;99467.00;;;;5070853;28;20505;-67
2024/01/26 02:41:35;;;;;;;1.80;1.70;;;;;11.00;99469.00;;;;5072035;28;20402;-69
2024/01/26 02:44:02;;;;;;;2.85;1.55;;;;;11.10;99477.00;;;;5070237;28;20409;-66
2024/01/26 02:46:29;;;;;;;2.55;1.70;;;;;11.10;99468.00;;;;5070760;28;20147;-67
2024/01/26 02:48:56;;;;;;;2.78;1.40;;;;;11.10;99463.00;;;;5070624;28;20052;-67
2024/01/26 02:51:23;;;;;;;1.40;1.30;;;;;11.10;99467.00;;;;5070816;28;20055;-67
2024/01/26 02:53:49;;;;;;;1.85;1.40;;;;;11.10;99474.00;;;;5070126;28;20083;-67
2024/01/26 02:56:16;;;;;;;1.45;1.23;;;;;11.10;99468.00;;;;5070636;28;20048;-67
2024/01/26 02:58:43;;;;;;;2.42;1.45;;;;;11.20;99466.00;;;;5070513;28;20090;-69
2024/01/26 03:01:09;;;;;;;1.98;1.23;;;;;11.10;99467.00;;;;5070533;28;20040;-67
2024/01/26 03:03:36;;;;;;;1.33;1.23;;;;;11.10;99451.00;;;;5070198;28;20044;-67
2024/01/26 03:06:03;;;;;;;0.93;0.90;;;;;11.10;99458.00;;;;5071777;28;20044;-69
2024/01/26 03:08:31;;;;;;;1.50;1.40;;;;;11.10;99449.00;;;;5070497;28;20048;-67
2024/01/26 03:10:58;;;;;;;1.30;1.17;;;;;11.20;99448.00;;;;5071601;28;20046;-67
2024/01/26 03:13:24;;;;;;;1.20;1.10;;;;;11.20;99453.00;;;;5069927;28;20076;-67
2024/01/26 03:15:51;;;;;;;2.53;1.38;;;;;11.20;99447.00;;;;5071663;28;20550;-67
2024/01/26 03:18:18;;;;;;;1.98;1.15;;;;;11.20;99441.00;;;;5070418;28;20044;-67
2024/01/26 03:20:45;;;;;;;1.38;0.90;;;;;11.10;99451.00;;;;5071855;28;20417;-67
2024/01/26 03:23:13;;;;;;;3.65;1.10;;;;;11.10;99445.00;;;;5075624;28;20115;-67
2024/01/26 03:25:40;;;;;;;1.20;1.10;;;;;11.10;99448.00;;;;5073558;28;20084;-67
2024/01/26 03:28:07;;;;;;;5.38;1.35;;;;;11.10;99452.00;;;;5075521;28;20041;-67
2024/01/26 03:30:34;;;;;;;1.02;0.75;;;;;11.10;99457.00;;;;5075515;28;20045;-68
2024/01/26 03:33:01;;;;;;;0.95;0.80;;;;;11.10;99440.00;;;;5075447;28;20501;-69
2024/01/26 03:35:28;;;;;;;0.98;0.98;;;;;11.10;99440.00;;;;5074888;28;20501;-68
2024/01/26 03:37:55;;;;;;;0.80;0.80;;;;;11.10;99446.00;;;;5075363;28;20555;-68
2024/01/26 03:40:24;;;;;;;1.00;1.00;;;;;11.10;99436.00;;;;5075182;28;20044;-68
2024/01/26 03:42:51;;;;;;;1.45;1.15;;;;;11.10;99444.00;;;;5075181;28;20063;-69
2024/01/26 03:45:18;;;;;;;0.80;0.80;;;;;11.10;99440.00;;;;5074757;28;20086;-68
2024/01/26 03:47:45;;;;;;;1.40;1.10;;;;;11.10;99436.00;;;;5073997;28;20509;-68
2024/01/26 03:50:12;;;;;;;1.55;0.80;;;;;11.10;99438.00;;;;5073681;28;20143;-68
2024/01/26 03:52:39;;;;;;;1.20;0.95;;;;;11.10;99434.00;;;;5075134;28;20425;-68
2024/01/26 03:55:07;;;;;;;1.45;0.93;;;;;11.10;99428.00;;;;5074496;28;20136;-67
2024/01/26 03:57:35;;;;;;;0.73;0.60;;;;;11.10;99430.00;;;;5074996;28;20662;-70
2024/01/26 04:00:06;;;;;;;1.45;0.70;;;;;11.10;99437.00;;;;5075082;28;20504;-68
2024/01/26 04:02:38;;;;;;;0.57;0.57;;;;;11.10;99451.00;;;;5075204;28;20052;-68
2024/01/26 04:05:04;;;;;;;0.73;0.73;;;;;11.00;99438.00;;;;5073089;28;20060;-68
2024/01/26 04:07:31;;;;;;;0.90;0.70;;;;;11.00;99448.00;;;;5073741;28;20044;-69
2024/01/26 04:09:57;;;;;;;0.93;0.90;;;;;11.00;99445.00;;;;5074981;28;20484;-68
2024/01/26 04:12:24;;;;;;;1.55;1.10;;;;;11.00;99443.00;;;;5074785;28;20044;-68
2024/01/26 04:14:51;;;;;;;1.88;1.15;;;;;10.90;99443.00;;;;5074087;28;20489;-68
2024/01/26 04:17:17;;;;;;;1.10;1.00;;;;;10.90;99443.00;;;;5074765;28;20054;-68
2024/01/26 04:19:44;;;;;;;0.82;0.80;;;;;10.90;99452.00;;;;5074674;28;20685;-68
2024/01/26 04:22:11;;;;;;;0.90;0.90;;;;;10.90;99455.00;;;;5074692;28;20485;-68
2024/01/26 04:24:37;;;;;;;1.17;1.08;;;;;10.90;99453.00;;;;5072819;28;20041;-69
2024/01/26 04:27:04;;;;;;;2.03;1.20;;;;;11.00;99457.00;;;;5074605;28;20443;-69
2024/01/26 04:29:31;;;;;;;1.67;1.50;;;;;11.00;99454.00;;;;5073172;28;20531;-68
2024/01/26 04:31:58;;;;;;;1.45;1.35;;;;;11.00;99465.00;;;;5072977;28;20045;-68
2024/01/26 04:34:24;;;;;;;1.33;1.23;;;;;11.00;99458.00;;;;5072863;28;20045;-69
2024/01/26 04:36:51;;;;;;;1.15;1.13;;;;;11.00;99462.00;;;;5074355;28;20435;-68
2024/01/26 04:39:18;;;;;;;1.38;1.27;;;;;11.00;99458.00;;;;5074302;28;20082;-69
2024/01/26 04:41:45;;;;;;;1.70;1.60;;;;;11.00;99457.00;;;;5073064;28;20135;-68
2024/01/26 04:44:12;;;;;;;7.25;1.80;;;;;10.90;99453.00;;;;5073528;28;20501;-68
2024/01/26 04:46:39;;;;;;;5.70;2.05;;;;;11.00;99442.00;;;;5074308;28;20052;-69
2024/01/26 04:49:06;;;;;;;1.50;1.33;;;;;11.00;99441.00;;;;5074158;28;20131;-68
2024/01/26 04:51:33;;;;;;;4.80;1.67;;;;;11.00;99432.00;;;;5074095;28;20080;-69
2024/01/26 04:53:59;;;;;;;2.70;1.70;;;;;11.00;99433.00;;;;5073366;28;20135;-69
2024/01/26 04:56:26;;;;;;;1.67;1.58;;;;;10.90;99436.00;;;;5074112;28;20481;-69
2024/01/26 04:58:53;;;;;;;2.20;2.00;;;;;11.00;99426.00;;;;5073858;28;20079;-69
2024/01/26 05:01:20;;;;;;;1.75;1.60;;;;;10.90;99428.00;;;;5072673;28;20048;-67
2024/01/26 05:03:47;;;;;;;2.85;1.70;;;;;10.90;99425.00;;;;5073156;28;20047;-69
2024/01/26 05:06:14;;;;;;;4.57;3.10;;;;;10.90;99430.00;;;;5073807;28;20072;-69
2024/01/26 05:08:41;;;;;;;1.70;1.60;;;;;10.90;99422.00;;;;5073749;28;20052;-68
2024/01/26 05:11:07;;;;;;;2.83;1.70;;;;;10.90;99423.00;;;;5073512;28;20044;-69
2024/01/26 05:13:34;;;;;;;2.35;2.15;;;;;10.90;99424.00;;;;5072917;28;20033;-68
2024/01/26 05:16:01;;;;;;;2.70;1.80;;;;;10.90;99428.00;;;;5073579;28;20127;-68
2024/01/26 05:18:29;;;;;;;2.15;1.90;;;;;10.90;99422.00;;;;5073405;28;20044;-69
2024/01/26 05:20:56;;;;;;;2.58;2.38;;;;;10.90;99431.00;;;;5073427;28;20135;-67
2024/01/26 05:23:23;;;;;;;2.20;2.00;;;;;10.90;99428.00;;;;5073031;28;20127;-68
2024/01/26 05:25:50;;;;;;;3.67;2.40;;;;;10.90;99430.00;;;;5071974;28;20062;-69
2024/01/26 05:28:16;;;;;;;2.60;2.20;;;;;10.90;99433.00;;;;5072245;28;20044;-69
2024/01/26 05:30:43;;;;;;;2.90;2.60;;;;;10.90;99440.00;;;;5073314;28;20154;-68
2024/01/26 05:33:10;;;;;;;4.13;2.65;;;;;10.90;99446.00;;;;5073061;28;20086;-68
2024/01/26 05:35:37;;;;;;;4.18;3.03;;;;;10.90;99449.00;;;;5072557;28;20087;-69
2024/01/26 05:38:04;;;;;;;4.10;3.70;;;;;10.80;99447.00;;;;5071957;28;20045;-69
2024/01/26 05:40:31;;;;;;;4.88;3.72;;;;;10.80;99453.00;;;;5073009;28;20593;-70
2024/01/26 05:42:58;;;;;;;6.82;3.50;;;;;10.80;99444.00;;;;5072910;28;20047;-69
2024/01/26 05:45:24;;;;;;;4.68;3.83;;;;;10.80;99450.00;;;;5072209;28;20072;-69
2024/01/26 05:47:52;;;;;;;7.05;4.05;;;;;10.80;99453.00;;;;5072962;28;20040;-69
2024/01/26 05:50:21;;;;;;;5.13;4.13;;;;;10.80;99451.00;;;;5071532;28;20044;-68
2024/01/26 05:52:48;;;;;;;5.00;4.35;;;;;10.80;99459.00;;;;5072740;28;20123;-68
2024/01/26 05:55:15;;;;;;;6.82;4.38;;;;;10.80;99460.00;;;;5070887;28;20080;-69
2024/01/26 05:57:43;;;;;;;6.05;4.32;;;;;10.90;99460.00;;;;5071398;28;20072;-67
2024/01/26 06:00:10;;;;;;;6.95;5.10;;;;;10.80;99453.00;;;;5072814;28;20490;-68
2024/01/26 06:02:39;;;;;;;5.20;4.00;;;;;10.80;99463.00;;;;5072794;28;20110;-68
2024/01/26 06:05:06;;;;;;;5.32;4.03;;;;;10.80;99452.00;;;;5070987;28;20524;-67
2024/01/26 06:07:32;;;;;;;6.07;4.30;;;;;10.80;99437.00;;;;5071532;28;20053;-69
2024/01/26 06:09:59;;;;;;;8.18;4.47;;;;;10.80;99438.00;;;;5071495;28;20044;-69
2024/01/26 06:12:26;;;;;;;5.05;3.72;;;;;10.80;99439.00;;;;5071297;28;20044;-69
2024/01/26 06:14:52;;;;;;;6.57;4.97;;;;;10.90;99443.00;;;;5072136;28;20123;-68
2024/01/26 06:17:19;;;;;;;7.30;4.15;;;;;10.90;99432.00;;;;5071202;28;20052;-68
2024/01/26 06:19:46;;;;;;;4.35;3.70;;;;;10.90;99432.00;;;;5072456;28;20047;-69
2024/01/26 06:22:12;;;;;;;4.20;3.75;;;;;10.90;99424.00;;;;5072635;28;20095;-69
2024/01/26 06:24:39;;;;;;;3.67;3.38;;;;;10.90;99421.00;;;;5072030;28;20054;-67
2024/01/26 06:27:05;;;;;;;4.15;3.75;;;;;10.90;99418.00;;;;5070990;28;20074;-67
2024/01/26 06:29:33;;;;;;;3.90;3.50;;;;;10.90;99415.00;;;;5071123;28;20481;-68
2024/01/26 06:31:59;;;;;;;4.22;3.78;;;;;10.90;99411.00;;;;5072485;28;20105;-67
2024/01/26 06:34:26;;;;;;;3.90;3.50;;;;;10.90;99423.00;;;;5070535;28;20051;-67
2024/01/26 06:36:53;;;;;;;4.82;3.55;;;;;10.90;99420.00;;;;5072458;28;20526;-67
2024/01/26 06:39:20;;;;;;;4.43;4.03;;;;;10.90;99418.00;;;;5072450;28;20048;-67
2024/01/26 06:41:47;;;;;;;6.43;3.78;;;;;11.00;99430.00;;;;5072126;28;20048;-66
2024/01/26 06:44:14;;;;;;;5.35;4.38;;;;;11.00;99432.00;;;;5071618;28;20040;-67
2024/01/26 06:46:41;;;;;;;5.57;4.70;;;;;11.00;99432.00;;;;5072207;28;20075;-66
2024/01/26 06:49:08;;;;;;;5.05;4.45;;;;;11.10;99431.00;;;;5070865;28;20071;-67
2024/01/26 06:51:35;;;;;;;5.30;4.30;;;;;11.10;99427.00;;;;5070860;28;20041;-66
2024/01/26 06:54:01;;;;;;;5.90;5.35;;;;;11.00;99428.00;;;;5071334;28;20098;-67
2024/01/26 06:56:28;;;;;;;6.57;4.50;;;;;11.00;99419.00;;;;5074209;28;20497;-67
2024/01/26 06:58:55;;;;;;;7.90;4.47;;;;;11.00;99416.00;;;;5078560;28;20110;-66
2024/01/26 07:01:22;;;;;;;4.88;4.22;;;;;11.00;99411.00;;;;5078624;28;20048;-67
2024/01/26 07:03:48;;;;;;;5.75;4.35;;;;;11.00;99415.00;;;;5078038;28;20098;-67
2024/01/26 07:06:15;;;;;;;6.50;3.88;;;;;11.00;99420.00;;;;5078585;28;20051;-67
2024/01/26 07:08:42;;;;;;;5.57;4.03;;;;;11.00;99418.00;;;;5078634;28;20112;-67
2024/01/26 07:11:11;;;;;;;7.03;4.72;;;;;11.00;99435.00;;;;5078515;28;20499;-67
2024/01/26 07:13:37;;;;;;;4.93;4.25;;;;;11.00;99433.00;;;;5077990;28;20044;-66
2024/01/26 07:16:04;;;;;;;4.80;4.35;;;;;11.00;99439.00;;;;5078598;28;20032;-67
2024/01/26 07:18:34;;;;;;;8.15;4.13;;;;;11.00;99439.00;;;;5078644;28;20045;-67
2024/01/26 07:21:08;;;;;;;6.95;4.03;;;;;11.00;99437.00;;;;5077074;28;20048;-67
2024/01/26 07:23:35;;;;;;;6.15;4.13;;;;;11.00;99433.00;;;;5077016;28;20063;-66
2024/01/26 07:26:01;;;;;;;6.25;4.00;;;;;11.00;99433.00;;;;5078271;28;20052;-66
2024/01/26 07:28:28;;;;;;;5.93;4.07;;;;;11.00;99413.00;;;;5060457;28;20077;-68
2024/01/26 07:30:54;;;;;;;5.82;4.10;;;;;11.00;99390.00;;;;5076931;28;20098;-66
2024/01/26 07:33:21;;;;;;;6.00;4.15;;;;;11.00;99398.00;;;;5078056;28;20041;-66
2024/01/26 07:35:48;;;;;;;6.78;3.97;;;;;11.10;99419.00;;;;5076623;28;20049;-66
2024/01/26 07:38:15;;;;;;;4.70;3.60;;;;;11.10;99434.00;;;;5078238;28;20067;-66
2024/01/26 07:40:41;;;;;;;5.97;3.83;;;;;11.10;99432.00;;;;5078525;28;20082;-66
2024/01/26 07:43:09;;;;;;;5.85;3.17;;;;;11.00;99431.00;;;;5077030;28;20561;-65
2024/01/26 07:45:35;;;;;;;6.18;3.67;;;;;11.00;99435.00;;;;5077669;28;20040;-66
2024/01/26 07:48:02;;;;;;;3.97;3.10;;;;;11.00;99440.00;;;;5078338;28;20048;-67
2024/01/26 07:50:29;;;;;;;4.10;3.13;;;;;11.10;99429.00;;;;5078842;28;20557;-67
2024/01/26 07:52:55;;;;;;;3.65;3.00;;;;;11.10;99429.00;;;;5077321;28;20045;-67
2024/01/26 07:55:22;;;;;;;3.15;2.70;;;;;11.10;99432.00;;;;5083338;28;20104;-68
2024/01/26 07:57:48;;;;;;;3.67;3.10;;;;;11.20;99421.00;;;;5080871;28;20143;-68
2024/01/26 08:00:17;;;;;;;5.20;3.20;;;;;11.20;99428.00;;;;5078723;28;20460;-64
2024/01/26 08:02:45;;;;;;;4.20;2.92;;;;;11.10;99423.00;;;;5080500;28;20635;-68
2024/01/26 08:05:12;;;;;;;4.47;3.63;;;;;11.10;99416.00;;;;5079088;28;20049;-67
2024/01/26 08:07:39;;;;;;;4.55;3.60;;;;;11.10;99412.00;;;;5077819;28;20075;-67
2024/01/26 08:10:06;;;;;;;6.28;3.78;;;;;11.10;99412.00;;;;5076505;28;20211;-68
2024/01/26 08:12:34;;;;;;;3.72;3.35;;;;;11.10;99405.00;;;;5076254;28;20094;-68
2024/01/26 08:15:11;;;;;;;4.38;3.83;;;;;11.00;99399.00;;;;5075316;28;20053;-68
2024/01/26 08:17:38;;;;;;;5.65;3.78;;;;;11.00;99397.00;;;;5076524;28;20062;-67
2024/01/26 08:20:06;;;;;;;4.78;3.80;;;;;11.00;99393.00;;;;5076535;28;20040;-67
2024/01/26 08:22:34;;;;;;;3.95;3.55;;;;;11.10;99405.00;;;;5074782;28;20102;-68
2024/01/26 08:25:01;;;;;;;5.40;3.83;;;;;11.10;99395.00;;;;5074289;28;20041;-67
2024/01/26 08:27:28;;;;;;;4.57;3.85;;;;;11.10;99391.00;;;;5074411;28;20052;-68
2024/01/26 08:29:54;;;;;;;5.28;3.85;;;;;11.10;99386.00;;;;5074422;28;20086;-67
2024/01/26 08:32:21;;;;;;;5.78;3.78;;;;;11.20;99383.00;;;;5073194;28;20048;-67
2024/01/26 08:34:48;;;;;;;3.88;3.58;;;;;11.10;99374.00;;;;5073767;28;20453;-71
2024/01/26 08:37:14;;;;;;;4.05;3.40;;;;;11.20;99373.00;;;;5074548;28;20040;-67
2024/01/26 08:39:44;;;;;;;4.20;3.38;;;;;11.20;99367.00;;;;5074480;28;20098;-67
2024/01/26 08:42:12;;;;;;;4.57;3.53;;;;;11.20;99364.00;;;;5074452;28;20079;-66
2024/01/26 08:44:38;;;;;;;4.47;3.28;;;;;11.20;99366.00;;;;5073825;28;20045;-67
2024/01/26 08:47:05;;;;;;;3.45;3.15;;;;;11.30;99355.00;;;;5074696;28;20044;-67
2024/01/26 08:49:32;;;;;;;3.45;3.00;;;;;11.20;99353.00;;;;5074604;28;20060;-67
2024/01/26 08:51:59;;;;;;;5.00;3.22;;;;;11.20;99349.00;;;;5074486;28;20040;-66
2024/01/26 08:54:26;;;;;;;4.10;2.63;;;;;11.20;99339.00;;;;5073637;28;20054;-67
2024/01/26 08:56:52;;;;;;;3.20;2.75;;;;;11.20;99345.00;;;;5073018;28;20109;-70
2024/01/26 08:59:19;;;;;;;3.45;2.80;;;;;11.20;99327.00;;;;5074178;28;20040;-67
2024/01/26 09:01:46;;;;;;;3.40;2.58;;;;;11.20;99324.00;;;;5073053;28;20075;-67
2024/01/26 09:04:13;;;;;;;2.53;2.33;;;;;11.20;99328.00;;;;5073479;28;20471;-67
2024/01/26 09:06:40;;;;;;;4.47;2.60;;;;;11.30;99322.00;;;;5073961;28;20044;-67
2024/01/26 09:09:08;;;;;;;3.03;2.10;;;;;11.30;99335.00;;;;5073993;28;20572;-67
2024/01/26 09:11:35;;;;;;;2.55;2.22;;;;;11.20;99332.00;;;;5072698;28;20052;-69
2024/01/26 09:14:02;;;;;;;2.42;2.10;;;;;11.30;99321.00;;;;5073109;28;20161;-67
2024/01/26 09:16:28;;;;;;;2.50;2.25;;;;;11.30;99320.00;;;;5073941;28;20482;-66
2024/01/26 09:18:55;;;;;;;4.78;2.42;;;;;11.30;99317.00;;;;5073033;28;20127;-67
2024/01/26 09:21:22;;;;;;;3.97;2.20;;;;;11.30;99324.00;;;;5073460;28;20036;-67
2024/01/26 09:23:49;;;;;;;3.17;2.10;;;;;11.40;99316.00;;;;5071590;28;20037;-67
2024/01/26 09:26:15;;;;;;;2.53;2.33;;;;;11.40;99315.00;;;;5073230;28;20044;-68
2024/01/26 09:28:42;;;;;;;3.38;2.60;;;;;11.50;99323.00;;;;5073414;28;20462;-67
2024/01/26 09:31:08;;;;;;;2.58;2.38;;;;;11.50;99331.00;;;;5073426;28;20041;-67
2024/01/26 09:33:35;;;;;;;4.40;2.65;;;;;11.50;99329.00;;;;5072638;28;20398;-67
2024/01/26 09:36:02;;;;;;;3.88;2.75;;;;;11.50;99337.00;;;;5073177;28;20048;-67
2024/01/26 09:38:29;;;;;;;2.53;2.15;;;;;11.50;99340.00;;;;5073088;28;20489;-67
2024/01/26 09:40:56;;;;;;;3.63;2.63;;;;;11.40;99326.00;;;;5072944;28;20131;-68
2024/01/26 09:43:23;;;;;;;2.55;2.35;;;;;11.30;99323.00;;;;5072395;28;20037;-68
2024/01/26 09:45:53;;;;;;;2.50;2.30;;;;;11.30;99331.00;;;;5072859;28;20456;-67
2024/01/26 09:48:20;;;;;;;3.50;2.78;;;;;11.40;99342.00;;;;5071787;28;20110;-67
2024/01/26 09:50:53;;;;;;;3.03;2.40;;;;;11.40;99333.00;;;;5073031;28;20041;-68
2024/01/26 09:53:20;;;;;;;3.72;2.40;;;;;11.40;99344.00;;;;5072838;28;20666;-72
2024/01/26 09:55:47;;;;;;;2.50;2.30;;;;;11.40;99341.00;;;;5071089;28;20093;-68
2024/01/26 09:58:14;;;;;;;3.88;2.33;;;;;11.40;99348.00;;;;5072695;28;20040;-67
2024/01/26 10:00:44;;;;;;;4.00;2.40;;;;;11.40;99348.00;;;;5072606;28;20467;-67
2024/01/26 10:03:12;;;;;;;4.80;1.90;;;;;11.40;99343.00;;;;5072647;28;20037;-67
2024/01/26 10:05:39;;;;;;;2.47;2.13;;;;;11.40;99341.00;;;;5070565;28;20049;-67
2024/01/26 10:08:10;;;;;;;4.50;2.20;;;;;11.40;99336.00;;;;5071143;28;20059;-67
2024/01/26 10:10:37;;;;;;;2.85;2.00;;;;;11.30;99350.00;;;;5071010;28;20068;-68
2024/01/26 10:13:06;;;;;;;2.50;2.10;;;;;11.40;99356.00;;;;5072145;28;20437;-67
2024/01/26 10:15:33;;;;;;;2.83;2.20;;;;;11.40;99352.00;;;;5071748;28;20048;-68
2024/01/26 10:18:02;;;;;;;2.78;2.13;;;;;11.40;99356.00;;;;5072411;28;20041;-68
2024/01/26 10:20:29;;;;;;;2.72;2.42;;;;;11.40;99345.00;;;;5072392;28;20763;-69
2024/01/26 10:22:56;;;;;;;2.90;2.22;;;;;11.50;99345.00;;;;5072281;28;20048;-67
2024/01/26 10:25:22;;;;;;;2.55;1.90;;;;;11.50;99344.00;;;;5070466;28;20050;-67
2024/01/26 10:27:50;;;;;;;4.97;2.35;;;;;11.50;99338.00;;;;5072368;28;20123;-68
2024/01/26 10:30:19;;;;;;;2.65;2.00;;;;;11.60;99338.00;;;;5071738;28;20051;-70
2024/01/26 10:32:46;;;;;;;3.60;2.60;;;;;11.60;99331.00;;;;5072164;28;20044;-68
2024/01/26 10:35:16;;;;;;;2.22;2.00;;;;;11.70;99335.00;;;;5071469;28;20040;-68
2024/01/26 10:37:45;;;;;;;5.13;2.15;;;;;11.70;99330.00;;;;5071198;28;20180;-71
2024/01/26 10:40:15;;;;;;;3.10;2.80;;;;;11.70;99325.00;;;;5070902;28;20098;-68
2024/01/26 10:42:45;;;;;;;2.10;1.70;;;;;11.70;99329.00;;;;5072018;28;20048;-68
2024/01/26 10:45:12;;;;;;;1.65;1.55;;;;;11.70;99322.00;;;;5071691;28;20067;-68
2024/01/26 10:47:41;;;;;;;9.82;5.13;;;;;11.80;99338.00;;;;5072209;28;20563;-68
2024/01/26 10:50:09;;;;;;;3.55;1.98;;;;;11.70;99324.00;;;;5072153;28;20047;-68
2024/01/26 10:52:38;;;;;;;2.60;1.77;;;;;11.70;99327.00;;;;5070932;28;20044;-69
2024/01/26 10:55:05;;;;;;;2.25;1.75;;;;;11.70;99315.00;;;;5071637;28;20044;-68
2024/01/26 10:57:32;;;;;;;3.47;2.17;;;;;11.80;99314.00;;;;5070900;28;20044;-70
2024/01/26 10:59:59;;;;;;;2.63;2.20;;;;;11.80;99319.00;;;;5072384;28;20040;-68
2024/01/26 11:02:31;;;;;;;3.15;1.95;;;;;11.80;99319.00;;;;5070803;28;20143;-71
2024/01/26 11:04:58;;;;;;;2.47;1.90;;;;;11.80;99326.00;;;;5071454;28;20040;-68
2024/01/26 11:07:25;;;;;;;2.08;1.90;;;;;11.80;99316.00;;;;5070471;28;20045;-68
2024/01/26 11:09:59;;;;;;;2.25;1.85;;;;;11.80;99318.00;;;;5072070;28;20494;-70
2024/01/26 11:12:26;;;;;;;1.70;1.50;;;;;11.80;99312.00;;;;5072177;28;20102;-68
2024/01/26 11:15:06;;;;;;;2.42;1.80;;;;;11.80;99297.00;;;;5070314;28;20045;-68
2024/01/26 11:17:56;;;;;;;1.98;1.23;;;;;11.80;99307.00;;;;5071908;28;20501;-69
2024/01/26 11:20:30;;;;;;;1.75;1.65;;;;;11.90;99297.00;;;;5071817;28;20048;-69
2024/01/26 11:23:08;;;;;;;1.70;1.60;;;;;12.00;99295.00;;;;5071791;28;20115;-69
2024/01/26 11:25:40;;;;;;;1.42;1.33;;;;;11.90;99284.00;;;;5071620;28;20133;-68
2024/01/26 11:28:08;;;;;;;1.65;1.55;;;;;11.90;99294.00;;;;5070689;28;20095;-70
2024/01/26 11:30:35;;;;;;;1.83;1.73;;;;;11.90;99291.00;;;;5071877;28;20053;-68
2024/01/26 11:33:03;;;;;;;1.85;1.75;;;;;11.90;99291.00;;;;5071892;28;20406;-68
2024/01/26 11:35:29;;;;;;;2.10;1.65;;;;;11.90;99283.00;;;;5069989;28;20055;-68
2024/01/26 11:37:57;;;;;;;1.95;1.80;;;;;11.80;99292.00;;;;5071990;28;20124;-68
2024/01/26 11:40:23;;;;;;;3.25;1.75;;;;;11.90;99284.00;;;;5070734;28;20045;-69
2024/01/26 11:42:51;;;;;;;2.00;1.90;;;;;12.00;99286.00;;;;5074041;28;20048;-68
2024/01/26 11:45:44;;;;;;;2.75;1.50;;;;;12.00;99293.00;;;;5075409;28;20036;-68
2024/01/26 11:48:12;;;;;;;1.55;1.45;;;;;11.90;99286.00;;;;5074698;28;20110;-68
2024/01/26 11:50:42;;;;;;;1.63;1.52;;;;;11.90;99283.00;;;;5075703;28;20044;-70
2024/01/26 11:53:10;;;;;;;3.00;1.92;;;;;11.80;99269.00;;;;5076813;28;20047;-71
2024/01/26 11:55:40;;;;;;;1.73;1.40;;;;;11.90;99273.00;;;;5077321;28;20123;-68
2024/01/26 11:58:09;;;;;;;1.98;1.33;;;;;11.90;99272.00;;;;5080800;28;20075;-68
2024/01/26 12:00:35;;;;;;;1.65;1.33;;;;;11.90;99270.00;;;;5086821;28;20055;-68
2024/01/26 12:03:07;;;;;;;1.55;1.13;;;;;11.90;99259.00;;;;5087612;28;20059;-71
2024/01/26 12:05:35;;;;;;;1.67;1.58;;;;;11.90;99265.00;;;;5093811;28;20586;-69
2024/01/26 12:08:05;;;;;;;1.33;1.23;;;;;11.90;99259.00;;;;5090652;28;20057;-71
2024/01/26 12:10:34;;;;;;;2.22;1.60;;;;;12.00;99268.00;;;;5079012;28;20051;-69
2024/01/26 12:13:02;;;;;;;1.38;1.27;;;;;12.00;99269.00;;;;5078332;28;20076;-69
2024/01/26 12:15:37;;;;;;;1.67;1.20;;;;;12.00;99263.00;;;;5078690;28;20052;-69
2024/01/26 12:18:09;;;;;;;1.48;1.13;;;;;12.00;99259.00;;;;5084391;28;20061;-68
2024/01/26 12:20:38;;;;;;;1.35;1.17;;;;;12.10;99258.00;;;;5089019;28;20056;-69